Flight Track Log - Related Links

Times and Time Zones

All times are in EDT time to prevent confusion due to time zone crossing. See the SWA3843 flight status page for this flight to view local times or setup timezone preferences in your user account.

Time Position Orientation Groundspeed Altitude Reporting Facility
EDT Latitude Longitude Course Direction KTS MPH feet Rate Location/Type
Wed 10:58:24 AM 39.1294 -76.6753 310° West 212 244 1,800  Level Washington Center
Wed 10:59:23 AM 39.1667 -76.7333 310° West 251 289 4,300 3,076 Climbing Potomac TRACON
Wed 11:00:23 AM 39.2000 -76.8333 293° West 277 319 7,900 3,350 Climbing Potomac TRACON
Wed 11:01:23 AM 39.2167 -76.9333 282° West 292 336 11,000 2,400 Climbing Potomac TRACON
Wed 11:02:23 AM 39.2167 -77.0500 270° West 343 395 12,700 2,132 Climbing Potomac TRACON
Wed 11:03:24 AM 39.1833 -77.1667 250° West 390 449 15,300 2,529 Climbing Potomac TRACON
Wed 11:04:24 AM 39.1000 -77.2500 218° Southwest 398 458 17,800 2,246 Climbing Potomac TRACON
Wed 11:06:23 AM 38.9778 -77.4794 236° Southwest 413 475 22,000 1,933 Climbing Washington Center
Wed 11:07:24 AM 38.9528 -77.6122 256° West 424 488 23,600 1,884 Climbing Washington Center
Wed 11:08:24 AM 38.9247 -77.7850 258° West 441 507 25,800 1,835 Climbing Washington Center
Wed 11:09:25 AM 38.9011 -77.9283 258° West 454 522 27,300 1,563 Climbing Washington Center
Wed 11:10:23 AM 38.8750 -78.0847 258° West 459 528 28,900 1,613 Climbing Washington Center
Wed 11:11:24 AM 38.8528 -78.2467 260° West 459 528 30,500 1,686 Climbing Washington Center
Wed 11:12:24 AM 38.8511 -78.4092 269° West 459 528 32,300 1,537 Climbing Washington Center
Wed 11:13:25 AM 38.8494 -78.5717 269° West 459 528 33,600 857 Climbing Washington Center
Wed 11:14:23 AM 38.8475 -78.7317 269° West 459 528 34,000 202 Climbing Washington Center
Wed 11:15:24 AM 38.8472 -78.8942 270° West 459 528 34,000  Level Washington Center
Wed 11:16:24 AM 38.8428 -79.0567 268° West 459 528 34,000  Level Washington Center
Wed 11:18:24 AM 38.8372 -79.3789 269° West 459 528 34,000  Level Washington Center
Wed 11:19:25 AM 38.8361 -79.5386 270° West 459 528 34,000 504 Level Washington Center
Wed 11:20:23 AM 38.8342 -79.7197 269° West 459 528 35,000 605 Climbing Washington Center
Wed 11:21:24 AM 38.8286 -79.8819 268° West 459 528 35,200 797 Climbing Washington Center
Wed 11:22:46 AM 38.8206 -80.0892 267° West 452 520 36,900 1,042 Climbing Indianapolis Center
Wed 11:23:48 AM 38.8156 -80.2506 268° West 453 521 37,700 532 Climbing Indianapolis Center
Wed 11:24:50 AM 38.8114 -80.4150 268° West 460 529 38,000 145 Climbing Indianapolis Center
Wed 11:25:52 AM 38.8072 -80.5797 268° West 460 529 38,000  Level Indianapolis Center
Wed 11:26:54 AM 38.8003 -80.7758 267° West 459 528 38,000  Level Indianapolis Center
Wed 11:27:56 AM 38.7953 -80.9403 268° West 461 531 38,000  Level Indianapolis Center
Wed 11:28:58 AM 38.7906 -81.1028 268° West 458 527 38,000  Level Indianapolis Center
Wed 11:30:00 AM 38.7847 -81.2644 267° West 456 525 38,000  Level Indianapolis Center
Wed 11:31:01 AM 38.7775 -81.4367 267° West 459 528 38,000  Level Indianapolis Center
Wed 11:32:03 AM 38.7711 -81.5989 267° West 458 527 38,000  Level Indianapolis Center
Wed 11:33:05 AM 38.7656 -81.7775 268° West 466 536 38,000  Level Indianapolis Center
Wed 11:34:07 AM 38.7581 -81.9394 267° West 459 528 38,000  Level Indianapolis Center
Wed 11:35:09 AM 38.7522 -82.1031 267° West 461 531 38,000  Level Indianapolis Center
Wed 11:36:11 AM 38.7456 -82.2667 267° West 461 531 38,000  Level Indianapolis Center
Wed 11:37:12 AM 38.7389 -82.4319 267° West 466 536 38,000  Level Indianapolis Center
Wed 11:38:14 AM 38.7467 -82.6278 273° West 463 533 38,000  Level Indianapolis Center
Wed 11:39:16 AM 38.7600 -82.7908 276° West 462 532 38,000  Level Indianapolis Center
Wed 11:40:18 AM 38.7714 -82.9547 275° West 460 529 38,000  Level Indianapolis Center
Wed 11:41:20 AM 38.7831 -83.1169 275° West 457 526 38,000  Level Indianapolis Center
Wed 11:42:21 AM 38.7950 -83.2839 275° West 454 522 38,000  Level Indianapolis Center
Wed 11:43:23 AM 38.8069 -83.4475 275° West 455 524 38,000  Level Indianapolis Center
Wed 11:44:25 AM 38.8183 -83.6089 275° West 452 520 38,000  Level Indianapolis Center
Wed 11:45:27 AM 38.8297 -83.7731 275° West 455 524 38,000  Level Indianapolis Center
Wed 11:46:29 AM 38.8400 -83.9372 275° West 457 526 38,000  Level Indianapolis Center
Wed 11:47:31 AM 38.8511 -84.1025 275° West 459 528 38,000  Level Indianapolis Center
Wed 11:48:32 AM 38.8636 -84.2961 275° West 461 531 38,000  Level Indianapolis Center
Wed 11:49:34 AM 38.8739 -84.4603 275° West 458 527 38,000  Level Indianapolis Center
Wed 11:50:36 AM 38.8831 -84.6169 274° West 459 528 38,000  Level Indianapolis Center
Wed 11:51:38 AM 38.8925 -84.7794 274° West 459 528 38,000  Level Indianapolis Center
Wed 11:52:40 AM 38.9031 -84.9444 275° West 462 532 38,000  Level Indianapolis Center
Wed 11:53:42 AM 38.9128 -85.1078 274° West 462 532 38,000  Level Indianapolis Center
Wed 11:54:44 AM 38.9228 -85.3044 274° West 460 529 38,000  Level Indianapolis Center
Wed 11:55:46 AM 38.9319 -85.4681 274° West 459 528 38,000  Level Indianapolis Center
Wed 11:56:48 AM 38.9406 -85.6317 274° West 460 529 38,000  Level Indianapolis Center
Wed 11:57:50 AM 38.9489 -85.7958 274° West 461 531 38,000  Level Indianapolis Center
Wed 11:58:51 AM 38.9572 -85.9589 274° West 459 528 38,000  Level Indianapolis Center
Wed 11:59:53 AM 38.9642 -86.1228 273° West 460 529 38,000  Level Indianapolis Center
Wed 12:00:55 PM 38.9728 -86.2861 274° West 458 527 38,000  Level Indianapolis Center
Wed 12:01:57 PM 38.9811 -86.4822 273° West 458 527 38,000  Level Indianapolis Center
Wed 12:02:59 PM 38.9883 -86.6325 274° West 458 527 38,000  Level Indianapolis Center
Wed 12:04:01 PM 38.9950 -86.7950 273° West 457 526 38,000  Level Indianapolis Center
Wed 12:05:03 PM 39.0028 -86.9903 273° West 457 526 38,000  Level Indianapolis Center
Wed 12:06:05 PM 39.0094 -87.1514 273° West 454 522 38,000  Level Indianapolis Center
Wed 12:07:08 PM 39.0153 -87.3131 273° West 455 524 38,000  Level Indianapolis Center
Wed 12:08:09 PM 39.0211 -87.4739 273° West 453 521 38,000  Level Indianapolis Center
Wed 12:09:11 PM 39.0261 -87.6361 272° West 455 524 38,000  Level Indianapolis Center
Wed 12:10:13 PM 39.0325 -87.7972 273° West 453 521 38,000  Level Indianapolis Center
Wed 12:11:15 PM 39.0386 -87.9914 272° West 454 522 38,000  Level Indianapolis Center
Wed 12:12:17 PM 39.0439 -88.1528 272° West 451 519 38,000  Level Indianapolis Center
Wed 12:13:19 PM 39.0481 -88.3133 272° West 449 517 38,000  Level Indianapolis Center
Wed 12:14:21 PM 39.0525 -88.4750 272° West 451 519 38,000  Level Indianapolis Center
Wed 12:15:23 PM 39.0564 -88.6364 272° West 451 519 38,000  Level Indianapolis Center
Wed 12:16:25 PM 39.0603 -88.7981 272° West 452 520 38,000  Level Indianapolis Center
Wed 12:17:26 PM 39.0650 -88.9578 272° West 447 514 38,000  Level Indianapolis Center
Wed 12:18:28 PM 39.0689 -89.1525 272° West 451 519 38,000  Level Indianapolis Center
Wed 12:19:30 PM 39.0728 -89.3139 272° West 450 518 38,000  Level Indianapolis Center
Wed 12:20:54 PM 39.0775 -89.5439 272° West 453 521 38,000  Level Kansas City Center
Wed 12:21:57 PM 39.0803 -89.7069 271° West 457 526 38,000  Level Kansas City Center
Wed 12:22:58 PM 39.0836 -89.8819 271° West 458 527 38,000  Level Kansas City Center
Wed 12:24:01 PM 39.0844 -90.0350 270° West 455 524 38,000  Level Kansas City Center
Wed 12:25:02 PM 39.0878 -90.1967 272° West 456 525 38,000  Level Kansas City Center
Wed 12:26:05 PM 39.0900 -90.3594 271° West 460 529 38,000  Level Kansas City Center
Wed 12:27:07 PM 39.0917 -90.5539 271° West 458 527 38,000  Level Kansas City Center
Wed 12:28:11 PM 39.0939 -90.7119 271° West 451 519 38,000  Level Kansas City Center
Wed 12:29:11 PM 39.0953 -90.8714 271° West 449 517 38,000  Level Kansas City Center
Wed 12:30:12 PM 39.0967 -91.0308 271° West 449 517 38,000  Level Kansas City Center
Wed 12:31:16 PM 39.0969 -91.1914 270° West 449 517 38,000  Level Kansas City Center
Wed 12:32:17 PM 39.0972 -91.3508 270° West 450 518 38,000  Level Kansas City Center
Wed 12:33:18 PM 39.0972 -91.5431 270° West 449 517 38,000  Level Kansas City Center
Wed 12:34:22 PM 39.0975 -91.7006 270° West 450 518 38,000  Level Kansas City Center
Wed 12:35:22 PM 39.0967 -91.8614 270° West 450 518 38,000  Level Kansas City Center
Wed 12:36:25 PM 39.0964 -92.0242 270° West 453 521 38,000  Level Kansas City Center
Wed 12:37:29 PM 39.0953 -92.2169 270° West 451 519 38,000  Level Kansas City Center
Wed 12:38:30 PM 39.0942 -92.3803 270° West 455 524 38,000  Level Kansas City Center
Wed 12:40:33 PM 39.0908 -92.7072 269° West 458 527 38,000  Level Kansas City Center
Wed 12:41:37 PM 39.0900 -92.8583 270° West 457 526 38,000  Level Kansas City Center
Wed 12:42:37 PM 39.0872 -93.0492 269° West 451 519 38,000  Level Kansas City Center
Wed 12:43:41 PM 39.0853 -93.2114 269° West 453 521 38,000  Level Kansas City Center
Wed 12:44:41 PM 39.0825 -93.3700 269° West 451 519 38,000  Level Kansas City Center
Wed 12:45:45 PM 39.0808 -93.5444 269° West 452 520 38,000  Level Kansas City Center
Wed 12:46:46 PM 39.0786 -93.6969 269° West 446 513 38,000  Level Kansas City Center
Wed 12:47:46 PM 39.0753 -93.8750 269° West 445 512 38,000  Level Kansas City Center
Wed 12:48:51 PM 39.0722 -94.0269 269° West 444 511 38,000  Level Kansas City Center
Wed 12:49:52 PM 39.0681 -94.2044 268° West 444 511 38,000  Level Kansas City Center
Wed 12:50:53 PM 39.0644 -94.3572 268° West 444 511 38,000  Level Kansas City Center
Wed 12:51:56 PM 39.0600 -94.5372 268° West 448 516 38,000  Level Kansas City Center
Wed 12:52:57 PM 39.0547 -94.7025 268° West 449 517 38,000  Level Kansas City Center
Wed 12:54:01 PM 39.0508 -94.8722 268° West 452 520 38,000  Level Kansas City Center
Wed 12:55:02 PM 39.0458 -95.0264 268° West 449 517 38,000  Level Kansas City Center
Wed 12:56:05 PM 39.0408 -95.1978 268° West 450 518 38,000  Level Kansas City Center
Wed 12:57:07 PM 39.0361 -95.3725 268° West 453 521 38,000  Level Kansas City Center
Wed 12:58:08 PM 39.0319 -95.5233 268° West 452 520 38,000  Level Kansas City Center
Wed 12:59:11 PM 39.0261 -95.7056 268° West 454 522 38,000  Level Kansas City Center
Wed 01:00:12 PM 39.0197 -95.8597 267° West 451 519 38,000  Level Kansas City Center
Wed 01:01:13 PM 39.0147 -96.0153 268° West 453 521 38,000  Level Kansas City Center
Wed 01:03:20 PM 39.0011 -96.3492 267° West 451 519 38,000  Level Kansas City Center
Wed 01:04:20 PM 38.9944 -96.5292 267° West 452 520 38,000  Level Kansas City Center
Wed 01:05:24 PM 38.9881 -96.6833 267° West 454 522 38,000  Level Kansas City Center
Wed 01:06:25 PM 38.9808 -96.8367 267° West 461 531 38,000  Level Kansas City Center
Wed 01:07:25 PM 38.9722 -97.0275 267° West 446 513 38,000  Level Kansas City Center
Wed 01:08:29 PM 38.9653 -97.1844 267° West 442 509 38,000  Level Kansas City Center
Wed 01:09:29 PM 38.9581 -97.3417 267° West 443 510 38,000  Level Kansas City Center
Wed 01:10:33 PM 38.9494 -97.5183 266° West 443 510 38,000  Level Kansas City Center
Wed 01:11:33 PM 38.9425 -97.6706 267° West 444 511 38,000  Level Kansas City Center
Wed 01:12:37 PM 38.9328 -97.8489 266° West 450 518 38,000  Level Kansas City Center
Wed 01:13:38 PM 38.9233 -98.0089 266° West 451 519 38,000  Level Kansas City Center
Wed 01:14:39 PM 38.9156 -98.1689 266° West 451 519 38,000  Level Kansas City Center
Wed 01:15:43 PM 38.9058 -98.3286 266° West 452 520 38,000  Level Kansas City Center
Wed 01:16:46 PM 38.8967 -98.4886 266° West 451 519 38,000  Level Kansas City Center
Wed 01:17:47 PM 38.8872 -98.6475 266° West 450 518 38,000  Level Kansas City Center
Wed 01:18:50 PM 38.8758 -98.8400 266° West 452 520 38,000  Level Kansas City Center
Wed 01:19:51 PM 38.8672 -98.9978 266° West 447 514 38,000  Level Kansas City Center
Wed 01:20:54 PM 38.8556 -99.1567 265° West 448 516 38,000  Level Kansas City Center
Wed 01:21:54 PM 38.8469 -99.3169 266° West 451 519 38,000  Level Kansas City Center
Wed 01:22:58 PM 38.8506 -99.4775 272° West 451 519 38,000  Level Kansas City Center
Wed 01:23:59 PM 38.8508 -99.6550 270° West 451 519 38,000  Level Kansas City Center
Wed 01:25:02 PM 38.8533 -99.8353 271° West 453 521 38,000  Level Kansas City Center
Wed 01:26:04 PM 38.8536 -99.9900 270° West 455 524 38,000  Level Kansas City Center
Wed 01:27:04 PM 38.8550 -100.1703 271° West 454 522 38,000  Level Kansas City Center
Wed 01:27:34 PM 38.8544 -100.2456 269° West 456 525 38,000  Level Denver Center
Wed 01:28:36 PM 38.8556 -100.3994 271° West 454 522 38,000  Level Denver Center
Wed 01:29:38 PM 38.8553 -100.5800 270° West 455 524 38,000  Level Denver Center
Wed 01:30:40 PM 38.8558 -100.7369 270° West 458 527 38,000 -339 Level Denver Center
Wed 01:31:42 PM 38.8542 -100.9203 269° West 459 528 37,300 -774 Descending Denver Center
Wed 01:32:44 PM 38.8539 -101.0775 270° West 462 532 36,400 -823 Descending Denver Center
Wed 01:33:46 PM 38.8533 -101.2625 270° West 466 536 35,600 -823 Descending Denver Center
Wed 01:34:48 PM 38.8531 -101.4211 270° West 464 534 34,700 -774 Descending Denver Center
Wed 01:35:50 PM 38.8514 -101.6056 269° West 465 535 34,000 -339 Descending Denver Center
Wed 01:36:52 PM 38.8503 -101.7631 270° West 464 534 34,000  Level Denver Center
Wed 01:37:55 PM 38.8478 -101.9467 269° West 462 532 34,000  Level Denver Center
Wed 01:38:57 PM 38.8450 -102.1044 269° West 464 534 34,000  Level Denver Center
Wed 01:40:11 PM 38.8461 -102.2919 270° West 469 540 34,000  Level Denver Center
Wed 01:41:13 PM 38.9022 -102.4631 293° West 468 539 34,000  Level Denver Center
Wed 01:42:15 PM 38.9603 -102.6350 294° West 470 541 34,000  Level Denver Center
Wed 01:43:17 PM 39.0108 -102.7828 294° West 467 537 34,000  Level Denver Center
Wed 01:44:19 PM 39.0622 -102.9356 293° West 466 536 34,000 -726 Level Denver Center
Wed 01:45:21 PM 39.1144 -103.0869 294° West 464 534 32,500 -2,129 Descending Denver Center
Wed 01:46:23 PM 39.1750 -103.2669 294° West 458 527 29,600 -2,448 Descending Denver Center
Wed 01:47:26 PM 39.2217 -103.4106 293° West 440 506 27,400 -2,064 Descending Denver Center
Wed 01:48:28 PM 39.2689 -103.5500 294° West 428 493 25,300 -1,984 Descending Denver Center
Wed 01:49:30 PM 39.3133 -103.6833 293° West 410 472 23,300 -1,935 Descending Denver Center
Wed 01:50:32 PM 39.3553 -103.8147 292° West 399 459 21,300 -1,452 Descending Denver Center
Wed 01:51:34 PM 39.4047 -103.9575 294° West 379 436 20,300 -1,113 Descending Denver Center
Wed 01:52:36 PM 39.4633 -104.0508 309° West 340 391 19,000 -1,059 Descending Denver Center
Wed 01:53:50 PM 39.5236 -104.1492 308° West 323 372 17,900 -971 Descending Denver Center
Wed 01:54:52 PM 39.5919 -104.2661 307° West 331 381 16,800 -1,056 Descending Denver Center
Wed 01:55:55 PM 39.6194 -104.3786 288° West 331 381 15,700 -1,056 Descending Denver Center
Wed 01:56:57 PM 39.6564 -104.4897 293° West 323 372 14,600 -1,210 Descending Denver Center
Wed 01:57:59 PM 39.7356 -104.5183 344° North 301 346 13,200 -1,403 Descending Denver Center
Wed 01:59:01 PM 39.8261 -104.5214 359° North 305 351 11,700 -1,016 Descending Denver Center
Wed 02:00:03 PM 39.9081 -104.5217 360° North 296 341 11,100 -341 Descending Denver Center
Wed 02:01:04 PM 39.9683 -104.5206 North 256 295 11,000 -629 Descending Denver Center
Wed 02:02:07 PM 40.0444 -104.5181 North 224 258 9,800 -1,200 Descending Denver Center
Wed 02:03:09 PM 40.1083 -104.5161 North 229 264 8,500 -1,113 Descending Denver Center
Wed 02:04:11 PM 40.1153 -104.5864 277° West 199 229 7,500 -726 Descending Denver Center
Wed 02:05:13 PM 40.0781 -104.6322 223° Southwest 185 213 7,000 -242 Descending Denver Center
Wed 02:06:15 PM 40.0306 -104.6708 212° Southwest 187 215 7,000 -360 Level Denver Center
Wed 02:08:33 PM 39.9167 -104.6833 185° South 153 176 5,800 -548 Descending Denver TRACON
Wed 02:09:21 PM 39.8897 -104.6869 186° South 154 177 5,300 -625 Descending Denver Center
Wed 02:11:00 PM 39.8617 -104.6732 North  Level Estimated
Wed 02:18:00 PM 39.8617 -104.6732 North  Level Estimated
Wed 02:19:00 PM 39.8617 -104.6732 North  Level Estimated

Login

Don't have an account? Register now (free) for customized features, flight alerts, and more!